createdAt,value
2022-12-06T00:00:45.402Z,64.33
2022-12-06T00:03:11.960Z,64.63
2022-12-06T00:05:41.852Z,64.68
2022-12-06T00:08:12.412Z,64.58
2022-12-06T00:10:38.939Z,64.59
2022-12-06T00:13:05.679Z,64.65
2022-12-06T00:15:35.870Z,64.52
2022-12-06T00:18:02.610Z,64.88
2022-12-06T00:20:28.929Z,64.71
2022-12-06T00:22:55.502Z,64.81
2022-12-06T00:25:21.845Z,64.57
2022-12-06T00:27:48.154Z,64.95
2022-12-06T00:30:14.668Z,64.68
2022-12-06T00:32:40.997Z,64.85
2022-12-06T00:35:07.587Z,64.49
2022-12-06T00:37:33.934Z,64.45
2022-12-06T00:40:00.575Z,64.48
2022-12-06T00:42:27.227Z,64.26
2022-12-06T00:44:53.543Z,64.44
2022-12-06T00:47:19.858Z,64.90
2022-12-06T00:49:46.254Z,64.43
2022-12-06T00:52:12.717Z,64.87
2022-12-06T00:54:39.091Z,64.74
2022-12-06T00:57:05.618Z,64.53
2022-12-06T00:59:31.995Z,64.47
2022-12-06T01:01:58.429Z,64.45
2022-12-06T01:04:24.735Z,64.69
2022-12-06T01:06:51.091Z,64.41
2022-12-06T01:09:17.406Z,64.66
2022-12-06T01:11:43.753Z,64.81
2022-12-06T01:14:10.103Z,64.89
2022-12-06T01:16:36.462Z,64.47
2022-12-06T01:19:05.390Z,64.94
2022-12-06T01:21:31.824Z,64.50
2022-12-06T01:23:58.213Z,64.43
2022-12-06T01:26:27.804Z,64.63
2022-12-06T01:28:55.030Z,64.94
2022-12-06T01:31:21.685Z,64.83
2022-12-06T01:33:48.196Z,64.62
2022-12-06T01:36:19.821Z,64.50
2022-12-06T01:38:57.783Z,64.91
2022-12-06T01:41:25.870Z,64.88
2022-12-06T01:43:52.910Z,64.71
2022-12-06T01:46:33.510Z,64.89
2022-12-06T01:49:11.801Z,64.59
2022-12-06T01:51:39.813Z,64.91
2022-12-06T01:54:10.629Z,65.04
2022-12-06T01:56:38.798Z,64.89
2022-12-06T01:59:06.358Z,64.99
2022-12-06T02:01:34.410Z,64.82
2022-12-06T02:04:02.227Z,64.79
2022-12-06T02:06:30.771Z,65.21
2022-12-06T02:08:59.815Z,64.83
2022-12-06T02:11:29.520Z,64.83
2022-12-06T02:14:01.094Z,65.24
2022-12-06T02:16:45.951Z,64.91
2022-12-06T02:19:36.711Z,64.83
2022-12-06T02:22:20.412Z,64.72
2022-12-06T02:24:49.662Z,65.20
2022-12-06T02:27:48.135Z,65.07
2022-12-06T02:30:39.563Z,64.94
2022-12-06T02:33:19.091Z,64.82
2022-12-06T02:36:05.764Z,64.81
2022-12-06T02:38:51.004Z,64.77
2022-12-06T02:41:42.185Z,64.79
2022-12-06T02:44:23.153Z,64.92
2022-12-06T02:46:51.896Z,64.72
2022-12-06T02:49:18.653Z,64.91
2022-12-06T02:51:47.479Z,64.90
2022-12-06T02:54:14.533Z,64.83
2022-12-06T02:56:40.848Z,65.26
2022-12-06T02:59:07.165Z,65.36
2022-12-06T03:01:37.726Z,64.99
2022-12-06T03:04:31.521Z,65.07
2022-12-06T03:07:13.249Z,65.08
2022-12-06T03:10:18.272Z,64.93
2022-12-06T03:13:18.738Z,64.93
2022-12-06T03:16:00.000Z,65.22
2022-12-06T03:18:35.078Z,65.03
2022-12-06T03:21:11.352Z,65.45
2022-12-06T03:23:41.935Z,65.63
2022-12-06T03:26:13.199Z,65.43
2022-12-06T03:28:41.249Z,65.43
2022-12-06T03:31:11.503Z,65.74
2022-12-06T03:33:43.977Z,65.65
2022-12-06T03:36:14.871Z,65.79
2022-12-06T03:38:48.792Z,65.68
2022-12-06T03:41:18.369Z,65.58
2022-12-06T03:43:44.989Z,65.98
2022-12-06T03:46:15.930Z,65.91
2022-12-06T03:48:54.522Z,65.98
2022-12-06T03:51:26.393Z,65.61
2022-12-06T03:53:56.376Z,65.64
2022-12-06T03:56:23.501Z,65.74
2022-12-06T03:58:50.404Z,65.80
2022-12-06T04:01:17.309Z,65.63
2022-12-06T04:03:44.016Z,65.68
2022-12-06T04:06:11.690Z,66.00
2022-12-06T04:08:38.345Z,65.96
2022-12-06T04:11:05.297Z,66.25
2022-12-06T04:13:32.246Z,65.99
2022-12-06T04:16:00.529Z,66.21
2022-12-06T04:18:27.587Z,65.93
2022-12-06T04:21:15.771Z,66.21
2022-12-06T04:23:44.041Z,65.85
2022-12-06T04:26:14.269Z,65.83
2022-12-06T04:28:59.783Z,66.12
2022-12-06T04:31:45.122Z,66.19
2022-12-06T04:34:30.390Z,65.89
2022-12-06T04:37:16.201Z,65.85
2022-12-06T04:39:42.724Z,66.28
2022-12-06T04:42:28.370Z,65.93
2022-12-06T04:44:54.770Z,66.10
2022-12-06T04:47:21.117Z,66.19
2022-12-06T04:49:47.899Z,66.36
2022-12-06T04:52:14.963Z,66.45
2022-12-06T04:54:41.671Z,66.41
2022-12-06T04:57:11.297Z,66.26
2022-12-06T04:59:42.488Z,66.35
2022-12-06T05:02:13.301Z,66.00
2022-12-06T05:04:39.915Z,66.41
2022-12-06T05:07:06.353Z,66.05
2022-12-06T05:09:32.845Z,66.49
2022-12-06T05:11:59.282Z,66.37
2022-12-06T05:14:25.668Z,66.52
2022-12-06T05:16:52.098Z,66.22
2022-12-06T05:19:18.572Z,66.34
2022-12-06T05:21:44.882Z,66.51
2022-12-06T05:24:11.520Z,66.27
2022-12-06T05:26:38.169Z,66.22
2022-12-06T05:29:04.497Z,66.21
2022-12-06T05:31:30.916Z,66.53
2022-12-06T05:33:57.333Z,66.59
2022-12-06T05:36:26.597Z,66.27
2022-12-06T05:38:53.395Z,66.55
2022-12-06T05:41:21.129Z,66.40
2022-12-06T05:43:47.999Z,66.53
2022-12-06T05:46:14.822Z,66.35
2022-12-06T05:48:41.212Z,66.30
2022-12-06T05:51:07.540Z,66.42
2022-12-06T05:53:34.173Z,66.52
2022-12-06T05:56:08.999Z,66.16
2022-12-06T05:58:36.493Z,66.09
2022-12-06T06:01:03.680Z,66.36
2022-12-06T06:03:30.157Z,66.53
2022-12-06T06:05:59.477Z,66.30
2022-12-06T06:08:26.701Z,66.36
2022-12-06T06:10:53.354Z,66.23
2022-12-06T06:13:20.037Z,66.35
2022-12-06T06:15:47.701Z,66.40
2022-12-06T06:18:14.064Z,66.75
2022-12-06T06:20:40.550Z,66.45
2022-12-06T06:23:07.037Z,66.79
2022-12-06T06:25:33.378Z,66.95
2022-12-06T06:27:59.786Z,66.62
2022-12-06T06:30:26.126Z,67.05
2022-12-06T06:32:52.433Z,66.78
2022-12-06T06:35:18.763Z,66.61
2022-12-06T06:37:45.946Z,66.45
2022-12-06T06:40:12.416Z,66.84
2022-12-06T06:42:39.303Z,66.74
2022-12-06T06:45:06.574Z,66.80
2022-12-06T06:47:33.302Z,66.78
2022-12-06T06:49:59.740Z,66.43
2022-12-06T06:52:26.530Z,66.64
2022-12-06T06:54:52.828Z,66.86
2022-12-06T06:57:19.154Z,67.00
2022-12-06T06:59:46.050Z,66.59
2022-12-06T07:02:14.352Z,66.66
2022-12-06T07:04:40.860Z,66.48
2022-12-06T07:07:07.163Z,66.70
2022-12-06T07:09:34.694Z,66.78
2022-12-06T07:12:01.033Z,67.13
2022-12-06T07:14:27.408Z,67.04
2022-12-06T07:16:54.045Z,66.83
2022-12-06T07:19:20.531Z,67.04
2022-12-06T07:21:46.877Z,67.30
2022-12-06T07:24:13.209Z,67.15
2022-12-06T07:26:39.581Z,67.07
2022-12-06T07:29:06.251Z,67.81
2022-12-06T07:31:33.704Z,67.45
2022-12-06T07:34:02.254Z,67.89
2022-12-06T07:36:30.713Z,68.17
2022-12-06T07:38:58.376Z,68.35
2022-12-06T07:41:46.016Z,68.24
2022-12-06T07:44:33.138Z,68.39
2022-12-06T07:46:59.900Z,68.17
2022-12-06T07:49:26.264Z,68.33
2022-12-06T07:51:54.144Z,68.47
2022-12-06T07:54:20.940Z,68.76
2022-12-06T07:56:47.258Z,68.22
2022-12-06T07:59:13.615Z,68.45
2022-12-06T08:01:40.306Z,68.43
2022-12-06T08:04:07.737Z,68.73
2022-12-06T08:06:34.795Z,68.64
2022-12-06T08:09:01.288Z,68.27
2022-12-06T08:11:28.595Z,68.61
2022-12-06T08:13:55.018Z,68.45
2022-12-06T08:16:21.418Z,68.22
2022-12-06T08:18:47.789Z,68.28
2022-12-06T08:21:14.136Z,68.43
2022-12-06T08:23:40.481Z,68.07
2022-12-06T08:26:09.625Z,68.20
2022-12-06T08:28:38.011Z,68.45
2022-12-06T08:31:13.610Z,68.07
2022-12-06T08:33:40.414Z,68.16
2022-12-06T08:36:08.946Z,68.09
2022-12-06T08:38:36.768Z,68.21
2022-12-06T08:41:03.989Z,67.84
2022-12-06T08:43:31.395Z,67.92
2022-12-06T08:45:58.175Z,67.96
2022-12-06T08:48:24.562Z,68.00
2022-12-06T08:50:50.907Z,67.66
2022-12-06T08:53:17.211Z,67.82
2022-12-06T08:55:58.733Z,67.57
2022-12-06T08:58:28.492Z,67.75
2022-12-06T09:00:54.810Z,67.66
2022-12-06T09:03:21.138Z,67.56
2022-12-06T09:05:47.546Z,67.67
2022-12-06T09:08:14.469Z,67.78
2022-12-06T09:10:42.453Z,67.95
2022-12-06T09:13:09.068Z,67.46
2022-12-06T09:15:35.486Z,67.98
2022-12-06T09:18:01.835Z,67.59
2022-12-06T09:20:28.171Z,67.92
2022-12-06T09:22:54.465Z,67.40
2022-12-06T09:25:20.792Z,67.74
2022-12-06T09:27:47.783Z,67.17
2022-12-06T09:30:14.652Z,67.41
2022-12-06T09:32:41.073Z,67.44
2022-12-06T09:35:12.270Z,67.45
2022-12-06T09:37:41.478Z,67.52
2022-12-06T09:40:16.707Z,67.19
2022-12-06T09:43:02.101Z,66.91
2022-12-06T09:46:10.423Z,67.13
2022-12-06T09:49:10.014Z,66.88
2022-12-06T09:51:54.543Z,67.12
2022-12-06T09:54:33.747Z,66.86
2022-12-06T09:57:21.912Z,66.79
2022-12-06T10:00:06.079Z,66.66
2022-12-06T10:03:05.860Z,66.37
2022-12-06T10:06:02.616Z,66.64
2022-12-06T10:08:39.376Z,66.42
2022-12-06T10:11:15.773Z,66.58
2022-12-06T10:13:57.049Z,66.22
2022-12-06T10:16:53.543Z,66.29
2022-12-06T10:19:27.355Z,66.46
2022-12-06T10:22:15.237Z,66.39
2022-12-06T10:24:46.276Z,66.36
2022-12-06T10:27:22.626Z,66.66
2022-12-06T10:29:56.446Z,66.57
2022-12-06T10:33:05.182Z,66.18
2022-12-06T10:35:42.403Z,66.53
2022-12-06T10:38:30.169Z,66.38
2022-12-06T10:41:14.047Z,65.98
2022-12-06T10:44:01.597Z,65.64
2022-12-06T10:47:06.261Z,65.93
2022-12-06T10:49:40.992Z,65.82
2022-12-06T10:52:32.015Z,65.78
2022-12-06T10:55:14.485Z,65.63
2022-12-06T10:58:12.910Z,65.44
2022-12-06T11:00:51.564Z,65.29
2022-12-06T11:03:27.858Z,65.28
2022-12-06T11:05:59.529Z,65.34
2022-12-06T11:08:43.949Z,65.12
2022-12-06T11:11:17.346Z,65.23
2022-12-06T11:14:03.338Z,65.22
2022-12-06T11:16:38.331Z,65.30
2022-12-06T11:19:23.005Z,65.13
2022-12-06T11:22:04.103Z,64.88
2022-12-06T11:24:43.213Z,65.35
2022-12-06T11:27:26.740Z,65.10
2022-12-06T11:29:53.310Z,65.09
2022-12-06T11:32:19.864Z,64.94
2022-12-06T11:34:52.963Z,65.04
2022-12-06T11:37:22.349Z,64.55
2022-12-06T11:39:52.927Z,64.51
2022-12-06T11:42:25.294Z,64.17
2022-12-06T11:45:07.051Z,64.17
2022-12-06T11:47:33.678Z,64.25
2022-12-06T11:50:04.374Z,63.95
2022-12-06T11:52:45.408Z,64.05
2022-12-06T11:55:25.179Z,64.63
2022-12-06T11:58:02.100Z,64.59
2022-12-06T12:00:31.051Z,63.66
2022-12-06T12:02:57.773Z,62.57
2022-12-06T12:05:30.924Z,62.54
2022-12-06T12:08:04.788Z,62.37
2022-12-06T12:10:40.621Z,62.96
2022-12-06T12:13:31.619Z,62.79
2022-12-06T12:16:03.936Z,62.69
2022-12-06T12:18:35.289Z,63.01
2022-12-06T12:21:03.179Z,63.00
2022-12-06T12:23:37.079Z,63.31
2022-12-06T12:26:17.149Z,64.20
2022-12-06T12:29:03.394Z,63.52
2022-12-06T12:31:29.771Z,63.90
2022-12-06T12:34:19.229Z,63.08
2022-12-06T12:36:52.769Z,62.22
2022-12-06T12:39:26.749Z,61.43
2022-12-06T12:41:53.303Z,61.21
2022-12-06T12:44:42.897Z,61.29
2022-12-06T12:47:19.898Z,61.02
2022-12-06T12:50:20.186Z,60.74
2022-12-06T12:52:47.602Z,60.45
2022-12-06T12:55:27.845Z,60.96
2022-12-06T12:57:57.679Z,61.33
2022-12-06T13:00:37.732Z,61.25
2022-12-06T13:03:28.486Z,61.53
2022-12-06T13:05:57.428Z,61.86
2022-12-06T13:08:31.324Z,62.28
2022-12-06T13:11:01.945Z,62.48
2022-12-06T13:13:39.476Z,62.51
2022-12-06T13:16:12.588Z,62.87
2022-12-06T13:18:44.574Z,62.63
2022-12-06T13:21:25.525Z,62.15
2022-12-06T13:24:14.257Z,62.15
2022-12-06T13:27:12.902Z,61.98
2022-12-06T13:30:14.736Z,61.39
2022-12-06T13:33:03.102Z,61.46
2022-12-06T13:35:47.622Z,61.13
2022-12-06T13:38:20.033Z,61.09
2022-12-06T13:40:56.243Z,61.09
2022-12-06T13:43:35.076Z,60.91
2022-12-06T13:46:08.900Z,60.92
2022-12-06T13:48:54.906Z,60.95
2022-12-06T13:51:42.318Z,60.93
2022-12-06T13:54:15.393Z,61.23
2022-12-06T13:56:42.161Z,61.40
2022-12-06T13:59:11.260Z,61.35
2022-12-06T14:01:46.859Z,61.69
2022-12-06T14:09:50.056Z,61.59
2022-12-06T14:12:20.274Z,61.55
2022-12-06T14:15:00.220Z,61.68
2022-12-06T14:18:12.516Z,61.79
2022-12-06T14:20:35.781Z,61.99
2022-12-06T14:23:02.128Z,61.79
2022-12-06T14:25:30.291Z,61.96
2022-12-06T14:28:11.653Z,61.65
2022-12-06T14:30:39.121Z,61.43
2022-12-06T14:33:22.331Z,61.52
2022-12-06T14:35:51.930Z,61.56
2022-12-06T14:38:50.713Z,61.86
2022-12-06T14:41:37.811Z,61.65
2022-12-06T14:44:13.531Z,61.93
2022-12-06T14:46:40.775Z,61.94
2022-12-06T14:49:31.130Z,61.87
2022-12-06T14:51:57.637Z,61.78
2022-12-06T14:54:42.815Z,62.07
2022-12-06T14:57:26.343Z,62.28
2022-12-06T15:00:20.838Z,61.80
2022-12-06T15:03:01.628Z,61.82
2022-12-06T15:05:43.823Z,61.75
2022-12-06T15:08:28.587Z,61.72
2022-12-06T15:10:59.984Z,61.92
2022-12-06T15:13:27.396Z,61.41
2022-12-06T15:16:09.221Z,61.56
2022-12-06T15:18:45.932Z,61.51
2022-12-06T15:21:17.362Z,61.68
2022-12-06T15:23:52.027Z,61.79
2022-12-06T15:26:19.970Z,61.24
2022-12-06T15:28:47.029Z,61.44
2022-12-06T15:31:18.725Z,61.62
2022-12-06T15:33:45.515Z,61.66
2022-12-06T15:36:23.376Z,61.94
2022-12-06T15:38:51.187Z,61.63
2022-12-06T15:41:21.392Z,62.21
2022-12-06T15:43:48.728Z,62.09
2022-12-06T15:46:21.188Z,61.73
2022-12-06T15:48:47.575Z,61.82
2022-12-06T15:51:20.608Z,62.21
2022-12-06T15:53:49.421Z,62.64
2022-12-06T15:56:18.132Z,62.42
2022-12-06T15:58:46.613Z,62.94
2022-12-06T16:01:15.851Z,62.75
2022-12-06T16:03:42.233Z,63.20
2022-12-06T16:06:16.638Z,63.57
2022-12-06T16:08:43.786Z,63.37
2022-12-06T16:11:12.958Z,63.42
2022-12-06T16:13:39.920Z,64.01
2022-12-06T16:16:06.621Z,63.70
2022-12-06T16:18:33.084Z,64.06
2022-12-06T16:20:59.445Z,64.12
2022-12-06T16:24:12.459Z,64.25
2022-12-06T16:26:39.142Z,64.19
2022-12-06T16:29:07.318Z,64.41
2022-12-06T16:31:38.437Z,63.98
2022-12-06T16:34:05.460Z,64.54
2022-12-06T16:36:32.333Z,64.74
2022-12-06T16:39:01.998Z,64.19
2022-12-06T16:41:34.412Z,64.18
2022-12-06T16:44:01.391Z,64.23
2022-12-06T16:46:33.001Z,64.81
2022-12-06T16:49:36.778Z,64.64
2022-12-06T16:51:51.516Z,64.55
2022-12-06T16:54:18.150Z,64.57
2022-12-06T16:56:45.404Z,64.58
2022-12-06T16:59:16.217Z,64.47
2022-12-06T17:01:50.944Z,64.57
2022-12-06T17:04:17.746Z,64.46
2022-12-06T17:06:47.191Z,64.47
2022-12-06T17:09:14.254Z,64.67
2022-12-06T17:11:59.480Z,64.49
2022-12-06T17:14:26.154Z,64.55
2022-12-06T17:16:53.269Z,64.73
2022-12-06T17:19:23.122Z,64.31
2022-12-06T17:21:51.637Z,64.23
2022-12-06T17:24:19.256Z,64.80
2022-12-06T17:26:45.628Z,64.45
2022-12-06T17:29:12.358Z,64.84
2022-12-06T17:31:38.835Z,64.75
2022-12-06T17:34:07.430Z,64.68
2022-12-06T17:36:34.510Z,64.81
2022-12-06T17:39:04.509Z,64.49
2022-12-06T17:41:52.015Z,64.62
2022-12-06T17:44:19.058Z,64.50
2022-12-06T17:46:45.608Z,64.55
2022-12-06T17:49:18.179Z,64.17
2022-12-06T17:51:44.838Z,64.27
2022-12-06T17:54:12.069Z,64.37
2022-12-06T17:56:41.241Z,64.19
2022-12-06T17:59:13.961Z,63.91
2022-12-06T18:02:12.947Z,64.33
2022-12-06T18:04:28.376Z,64.08
2022-12-06T18:06:55.144Z,64.03
2022-12-06T18:09:21.480Z,64.25
2022-12-06T18:11:48.867Z,64.29
2022-12-06T18:14:15.793Z,64.33
2022-12-06T18:16:45.731Z,64.51
2022-12-06T18:19:17.481Z,64.09
2022-12-06T18:21:44.237Z,64.40
2022-12-06T18:24:22.647Z,64.40
2022-12-06T18:26:49.948Z,64.04
2022-12-06T18:29:21.523Z,64.44
2022-12-06T18:31:48.479Z,64.42
2022-12-06T18:34:15.403Z,64.29
2022-12-06T18:36:41.926Z,64.18
2022-12-06T18:39:15.098Z,64.18
2022-12-06T18:41:45.189Z,64.25
2022-12-06T18:44:12.872Z,63.96
2022-12-06T18:46:42.011Z,63.88
2022-12-06T18:49:10.759Z,63.98
2022-12-06T18:51:38.443Z,63.87
2022-12-06T18:54:05.305Z,64.45
2022-12-06T18:56:33.313Z,63.93
2022-12-06T18:59:01.248Z,63.93
2022-12-06T19:01:38.656Z,63.95
2022-12-06T19:04:06.604Z,63.75
2022-12-06T19:06:37.439Z,64.26
2022-12-06T19:09:07.988Z,64.19
2022-12-06T19:11:38.889Z,64.56
2022-12-06T19:14:06.176Z,64.37
2022-12-06T19:16:38.460Z,64.08
2022-12-06T19:19:12.691Z,64.36
2022-12-06T19:21:43.781Z,64.38
2022-12-06T19:24:12.136Z,64.61
2022-12-06T19:26:38.502Z,64.41
2022-12-06T19:29:05.714Z,64.24
2022-12-06T19:31:32.022Z,64.76
2022-12-06T19:33:58.419Z,64.21
2022-12-06T19:36:29.999Z,64.58
2022-12-06T19:38:58.926Z,64.60
2022-12-06T19:41:25.892Z,64.39
2022-12-06T19:44:10.938Z,64.64
2022-12-06T19:46:38.196Z,64.31
2022-12-06T19:49:06.520Z,64.35
2022-12-06T19:51:40.664Z,64.22
2022-12-06T19:54:08.069Z,64.21
2022-12-06T19:56:35.121Z,64.41
2022-12-06T19:59:11.224Z,64.68
2022-12-06T20:01:45.315Z,64.33
2022-12-06T20:04:20.041Z,64.52
2022-12-06T20:06:46.711Z,64.40
2022-12-06T20:09:13.964Z,64.65
2022-12-06T20:12:00.367Z,64.15
2022-12-06T20:14:27.680Z,64.38
2022-12-06T20:16:54.537Z,63.97
2022-12-06T20:19:21.405Z,64.10
2022-12-06T20:21:48.624Z,64.04
2022-12-06T20:24:18.828Z,64.11
2022-12-06T20:26:47.036Z,64.44
2022-12-06T20:29:13.375Z,64.12
2022-12-06T20:31:40.013Z,64.73
2022-12-06T20:34:11.632Z,64.52
2022-12-06T20:36:41.474Z,64.49
2022-12-06T20:39:08.032Z,64.63
2022-12-06T20:41:34.697Z,64.88
2022-12-06T20:44:02.075Z,64.41
2022-12-06T20:46:31.225Z,64.73
2022-12-06T20:49:02.592Z,64.64
2022-12-06T20:51:30.232Z,64.57
2022-12-06T20:53:58.810Z,64.60
2022-12-06T20:56:29.185Z,64.64
2022-12-06T20:58:57.459Z,64.95
2022-12-06T21:01:26.874Z,64.64
2022-12-06T21:03:54.801Z,65.03
2022-12-06T21:06:23.307Z,64.97
2022-12-06T21:08:50.304Z,65.08
2022-12-06T21:11:23.134Z,65.24
2022-12-06T21:13:54.946Z,64.89
2022-12-06T21:16:26.642Z,65.20
2022-12-06T21:18:57.856Z,65.16
2022-12-06T21:21:27.368Z,65.19
2022-12-06T21:23:53.791Z,65.43
2022-12-06T21:26:20.589Z,65.19
2022-12-06T21:28:47.022Z,65.13
2022-12-06T21:31:13.434Z,64.77
2022-12-06T21:33:39.884Z,65.22
2022-12-06T21:36:07.066Z,65.19
2022-12-06T21:38:34.214Z,65.17
2022-12-06T21:41:09.287Z,65.58
2022-12-06T21:43:35.773Z,65.34
2022-12-06T21:46:07.069Z,65.97
2022-12-06T21:48:33.877Z,65.92
2022-12-06T21:51:06.477Z,65.62
2022-12-06T21:53:33.924Z,65.96
2022-12-06T21:56:05.917Z,65.66
2022-12-06T21:58:32.274Z,66.51
2022-12-06T22:01:04.890Z,66.40
2022-12-06T22:03:31.282Z,66.64
2022-12-06T22:05:57.708Z,66.54
2022-12-06T22:08:24.089Z,66.60
2022-12-06T22:10:52.549Z,66.85
2022-12-06T22:13:19.369Z,66.90
2022-12-06T22:15:46.258Z,66.57
2022-12-06T22:18:12.610Z,66.74
2022-12-06T22:20:38.918Z,67.10
2022-12-06T22:23:05.258Z,66.95
2022-12-06T22:25:31.597Z,67.10
2022-12-06T22:27:57.906Z,66.77
2022-12-06T22:30:24.269Z,66.84
2022-12-06T22:32:50.628Z,67.21
2022-12-06T22:35:17.045Z,67.20
2022-12-06T22:37:43.492Z,67.38
2022-12-06T22:40:10.370Z,67.16
2022-12-06T22:42:36.685Z,67.47
2022-12-06T22:45:03.341Z,67.08
2022-12-06T22:47:29.679Z,67.10
2022-12-06T22:49:56.014Z,67.37
2022-12-06T22:52:22.325Z,67.40
2022-12-06T22:54:48.766Z,67.32
2022-12-06T22:57:15.100Z,67.16
2022-12-06T22:59:41.431Z,67.53
2022-12-06T23:02:07.825Z,67.28
2022-12-06T23:04:34.202Z,67.52
2022-12-06T23:07:00.525Z,67.23
2022-12-06T23:09:27.034Z,67.31
2022-12-06T23:11:53.428Z,67.61
2022-12-06T23:14:19.816Z,67.31
2022-12-06T23:16:46.480Z,67.25
2022-12-06T23:19:12.929Z,67.41
2022-12-06T23:21:40.719Z,67.24
2022-12-06T23:24:09.823Z,67.09
2022-12-06T23:26:39.235Z,66.91
2022-12-06T23:29:06.256Z,67.23
2022-12-06T23:31:35.644Z,67.19
2022-12-06T23:34:07.801Z,67.37
2022-12-06T23:36:35.536Z,67.20
2022-12-06T23:39:02.668Z,67.13
2022-12-06T23:41:30.992Z,67.05
2022-12-06T23:43:58.157Z,67.29
2022-12-06T23:46:28.285Z,67.01
2022-12-06T23:48:55.119Z,67.14
2022-12-06T23:51:34.648Z,67.25
2022-12-06T23:54:02.888Z,67.15
2022-12-06T23:56:31.870Z,67.07
2022-12-06T23:58:59.402Z,67.11
